createdAt,value
2022-12-31T00:00:07.794Z,23.5400
2022-12-31T00:00:18.982Z,23.5500
2022-12-31T00:00:30.154Z,23.5500
2022-12-31T00:00:41.303Z,23.5500
2022-12-31T00:00:52.411Z,23.5600
2022-12-31T00:01:03.486Z,23.5600
2022-12-31T00:01:14.558Z,23.5600
2022-12-31T00:01:25.641Z,23.5700
2022-12-31T00:01:36.719Z,23.5700
2022-12-31T00:01:47.803Z,23.5700
2022-12-31T00:01:59.019Z,23.5700
2022-12-31T00:02:10.491Z,23.5700
2022-12-31T00:02:21.654Z,23.5700
2022-12-31T00:02:32.903Z,23.5700
2022-12-31T00:02:44.154Z,23.5700
2022-12-31T00:02:55.363Z,23.5700
2022-12-31T00:03:06.558Z,23.5700
2022-12-31T00:03:17.846Z,23.5700
2022-12-31T00:03:29.156Z,23.5700
2022-12-31T00:03:40.225Z,23.5700
2022-12-31T00:03:51.278Z,23.5700
2022-12-31T00:04:02.340Z,23.5600
2022-12-31T00:04:13.437Z,23.5700
2022-12-31T00:04:24.585Z,23.5700
2022-12-31T00:04:35.645Z,23.5700
2022-12-31T00:04:46.719Z,23.5700
2022-12-31T00:04:57.788Z,23.5600
2022-12-31T00:05:08.851Z,23.5600
2022-12-31T00:05:19.909Z,23.5600
2022-12-31T00:05:30.948Z,23.5600
2022-12-31T00:05:42.019Z,23.5600
2022-12-31T00:05:53.099Z,23.5600
2022-12-31T00:06:04.172Z,23.5600
2022-12-31T00:06:15.297Z,23.5600
2022-12-31T00:06:26.377Z,23.5600
2022-12-31T00:06:37.457Z,23.5600
2022-12-31T00:06:48.508Z,23.5500
2022-12-31T00:06:59.548Z,23.5500
2022-12-31T00:07:10.659Z,23.5500
2022-12-31T00:07:21.750Z,23.5500
2022-12-31T00:07:47.801Z,23.5400
2022-12-31T00:07:58.858Z,23.5400
2022-12-31T00:08:09.917Z,23.5000
2022-12-31T00:08:20.985Z,23.5000
2022-12-31T00:08:32.038Z,23.5100
2022-12-31T00:08:43.097Z,23.5100
2022-12-31T00:08:54.161Z,23.5200
2022-12-31T00:09:05.239Z,23.5200
2022-12-31T00:09:16.298Z,23.5200
2022-12-31T00:09:27.366Z,23.5200
2022-12-31T00:09:38.450Z,23.5200
2022-12-31T00:09:49.514Z,23.5200
2022-12-31T00:10:00.601Z,23.5200
2022-12-31T00:10:11.649Z,23.5100
2022-12-31T00:10:22.730Z,23.5100
2022-12-31T00:10:33.816Z,23.5100
2022-12-31T00:10:44.881Z,23.5100
2022-12-31T00:10:55.934Z,23.5100
2022-12-31T00:11:06.977Z,23.5100
2022-12-31T00:11:18.038Z,23.5100
2022-12-31T00:11:29.118Z,23.5200
2022-12-31T00:11:40.177Z,23.5100
2022-12-31T00:11:51.212Z,23.5100
2022-12-31T00:12:02.289Z,23.5000
2022-12-31T00:12:13.406Z,23.5000
2022-12-31T00:12:24.452Z,23.5100
2022-12-31T00:12:35.524Z,23.5100
2022-12-31T00:12:46.581Z,23.5100
2022-12-31T00:12:57.653Z,23.5100
2022-12-31T00:13:08.762Z,23.5000
2022-12-31T00:13:19.817Z,23.5100
2022-12-31T00:13:30.881Z,23.5100
2022-12-31T00:13:41.943Z,23.5100
2022-12-31T00:13:53.033Z,23.5100
2022-12-31T00:14:04.109Z,23.5100
2022-12-31T00:14:15.159Z,23.5100
2022-12-31T00:14:26.230Z,23.5100
2022-12-31T00:14:37.297Z,23.5100
2022-12-31T00:14:48.360Z,23.5100
2022-12-31T00:14:59.425Z,23.5100
2022-12-31T00:15:10.478Z,23.5100
2022-12-31T00:15:21.559Z,23.5100
2022-12-31T00:15:32.633Z,23.5100
2022-12-31T00:15:43.691Z,23.5100
2022-12-31T00:15:54.750Z,23.5100
2022-12-31T00:16:11.787Z,23.5100
2022-12-31T00:16:22.850Z,23.5200
2022-12-31T00:16:33.944Z,23.5000
2022-12-31T00:16:45.030Z,23.5000
2022-12-31T00:16:56.151Z,23.5100
2022-12-31T00:17:07.254Z,23.5100
2022-12-31T00:17:18.340Z,23.5100
2022-12-31T00:17:29.426Z,23.5100
2022-12-31T00:17:40.478Z,23.5100
2022-12-31T00:17:51.552Z,23.5100
2022-12-31T00:18:02.632Z,23.5000
2022-12-31T00:18:13.688Z,23.5000
2022-12-31T00:18:24.756Z,23.5000
2022-12-31T00:18:35.835Z,23.5000
2022-12-31T00:18:46.861Z,23.5000
2022-12-31T00:18:57.952Z,23.5000
2022-12-31T00:19:09.016Z,23.5000
2022-12-31T00:19:20.075Z,23.4900
2022-12-31T00:19:31.132Z,23.4900
2022-12-31T00:19:42.219Z,23.4900
2022-12-31T00:19:53.321Z,23.4900
2022-12-31T00:20:04.372Z,23.4900
2022-12-31T00:20:15.433Z,23.4800
2022-12-31T00:20:26.494Z,23.4800
2022-12-31T00:20:37.559Z,23.4800
2022-12-31T00:20:48.622Z,23.4800
2022-12-31T00:20:59.687Z,23.4800
2022-12-31T00:21:10.753Z,23.4800
2022-12-31T00:21:21.836Z,23.4800
2022-12-31T00:21:32.913Z,23.4800
2022-12-31T00:21:43.975Z,23.4800
2022-12-31T00:21:55.041Z,23.4800
2022-12-31T00:22:06.130Z,23.4800
2022-12-31T00:22:17.208Z,23.4800
2022-12-31T00:22:28.369Z,23.4800
2022-12-31T00:22:39.435Z,23.4700
2022-12-31T00:22:50.536Z,23.4700
2022-12-31T00:23:01.747Z,23.4700
2022-12-31T00:23:12.813Z,23.4700
2022-12-31T00:23:23.887Z,23.4700
2022-12-31T00:23:34.951Z,23.4700
2022-12-31T00:23:46.009Z,23.4700
2022-12-31T00:23:57.078Z,23.4800
2022-12-31T00:24:08.183Z,23.4800
2022-12-31T00:24:19.244Z,23.4800
2022-12-31T00:24:30.300Z,23.4800
2022-12-31T00:24:41.365Z,23.4800
2022-12-31T00:24:52.456Z,23.4900
2022-12-31T00:25:03.524Z,23.4900
2022-12-31T00:25:14.608Z,23.4900
2022-12-31T00:25:25.689Z,23.4900
2022-12-31T00:25:36.765Z,23.4900
2022-12-31T00:25:47.809Z,23.4900
2022-12-31T00:25:58.887Z,23.4900
2022-12-31T00:26:09.965Z,23.4900
2022-12-31T00:26:21.059Z,23.4900
2022-12-31T00:26:32.136Z,23.5000
2022-12-31T00:26:43.213Z,23.5000
2022-12-31T00:26:54.267Z,23.5000
2022-12-31T00:27:05.354Z,23.4900
2022-12-31T00:27:16.416Z,23.5000
2022-12-31T00:27:27.482Z,23.5000
2022-12-31T00:27:38.590Z,23.5000
2022-12-31T00:27:49.667Z,23.5000
2022-12-31T00:28:00.716Z,23.5000
2022-12-31T00:28:11.787Z,23.5000
2022-12-31T00:28:22.856Z,23.5000
2022-12-31T00:28:33.937Z,23.4900
2022-12-31T00:28:45.023Z,23.4900
2022-12-31T00:28:56.067Z,23.4900
2022-12-31T00:29:07.128Z,23.4900
2022-12-31T00:29:18.189Z,23.4900
2022-12-31T00:29:29.275Z,23.4900
2022-12-31T00:29:40.346Z,23.4900
2022-12-31T00:29:51.381Z,23.4900
2022-12-31T00:30:04.639Z,23.4900
2022-12-31T00:30:16.441Z,23.4900
2022-12-31T00:30:27.515Z,23.4800
2022-12-31T00:30:38.684Z,23.4800
2022-12-31T00:30:49.772Z,23.4900
2022-12-31T00:31:00.835Z,23.4800
2022-12-31T00:31:11.933Z,23.4800
2022-12-31T00:31:23.068Z,23.4800
2022-12-31T00:31:34.152Z,23.4800
2022-12-31T00:31:45.215Z,23.4900
2022-12-31T00:31:56.284Z,23.4900
2022-12-31T00:32:07.359Z,23.4800
2022-12-31T00:32:18.431Z,23.4800
2022-12-31T00:32:29.520Z,23.4800
2022-12-31T00:32:40.705Z,23.4800
2022-12-31T00:32:51.780Z,23.4800
2022-12-31T00:33:02.855Z,23.4700
2022-12-31T00:33:13.900Z,23.4800
2022-12-31T00:33:24.972Z,23.4800
2022-12-31T00:33:36.094Z,23.4800
2022-12-31T00:33:47.139Z,23.4800
2022-12-31T00:33:58.206Z,23.4800
2022-12-31T00:34:09.277Z,23.4800
2022-12-31T00:34:20.322Z,23.4800
2022-12-31T00:34:31.401Z,23.4800
2022-12-31T00:34:42.495Z,23.4800
2022-12-31T00:34:53.562Z,23.4800
2022-12-31T00:35:04.633Z,23.4900
2022-12-31T00:35:15.686Z,23.4900
2022-12-31T00:35:26.762Z,23.4900
2022-12-31T00:35:37.838Z,23.4800
2022-12-31T00:35:48.882Z,23.4800
2022-12-31T00:35:59.974Z,23.4800
2022-12-31T00:36:11.063Z,23.4800
2022-12-31T00:36:22.164Z,23.4800
2022-12-31T00:36:33.250Z,23.4800
2022-12-31T00:36:44.307Z,23.4700
2022-12-31T00:36:55.371Z,23.4700
2022-12-31T00:37:06.437Z,23.4700
2022-12-31T00:37:17.511Z,23.4700
2022-12-31T00:37:28.603Z,23.4700
2022-12-31T00:37:39.687Z,23.4800
2022-12-31T00:37:50.792Z,23.4800
2022-12-31T00:38:01.858Z,23.4700
2022-12-31T00:38:12.939Z,23.4700
2022-12-31T00:38:24.019Z,23.4700
2022-12-31T00:38:35.096Z,23.4700
2022-12-31T00:38:46.158Z,23.4700
2022-12-31T00:38:57.230Z,23.4800
2022-12-31T00:39:08.324Z,23.4800
2022-12-31T00:39:19.380Z,23.4800
2022-12-31T00:39:30.444Z,23.4800
2022-12-31T00:39:41.503Z,23.4800
2022-12-31T00:39:52.579Z,23.4800
2022-12-31T00:40:03.616Z,23.4800
2022-12-31T00:40:14.688Z,23.4800
2022-12-31T00:40:25.744Z,23.4800
2022-12-31T00:40:36.808Z,23.4700
2022-12-31T00:40:47.893Z,23.4800
2022-12-31T00:40:58.954Z,23.4800
2022-12-31T00:41:10.024Z,23.4700
2022-12-31T00:41:21.089Z,23.4800
2022-12-31T00:41:32.181Z,23.4800
2022-12-31T00:41:43.258Z,23.4800
2022-12-31T00:41:54.307Z,23.4800
2022-12-31T00:42:05.405Z,23.4700
2022-12-31T00:42:16.475Z,23.4700
2022-12-31T00:42:27.532Z,23.4700
2022-12-31T00:42:38.607Z,23.4700
2022-12-31T00:42:49.678Z,23.4700
2022-12-31T00:43:00.783Z,23.4700
2022-12-31T00:43:11.867Z,23.4800
2022-12-31T00:43:22.942Z,23.4700
2022-12-31T00:43:34.000Z,23.4700
2022-12-31T00:43:45.075Z,23.4700
2022-12-31T00:43:56.141Z,23.4700
2022-12-31T00:44:07.220Z,23.4700
2022-12-31T00:44:18.292Z,23.4700
2022-12-31T00:44:29.357Z,23.4700
2022-12-31T00:44:40.413Z,23.4800
2022-12-31T00:44:51.487Z,23.4800
2022-12-31T00:45:02.555Z,23.4800
2022-12-31T00:45:13.647Z,23.4800
2022-12-31T00:45:24.736Z,23.4800
2022-12-31T00:45:35.804Z,23.4800
2022-12-31T00:45:46.896Z,23.4800
2022-12-31T00:45:57.995Z,23.4800
2022-12-31T00:46:09.071Z,23.4800
2022-12-31T00:46:20.204Z,23.4800
2022-12-31T00:46:31.328Z,23.4800
2022-12-31T00:46:45.312Z,23.4800
2022-12-31T00:46:56.409Z,23.4800
2022-12-31T00:47:07.473Z,23.4700
2022-12-31T00:47:18.547Z,23.4700
2022-12-31T00:47:29.618Z,23.4700
2022-12-31T00:47:40.682Z,23.4700
2022-12-31T00:47:51.750Z,23.4700
2022-12-31T00:48:02.868Z,23.4700
2022-12-31T00:48:13.942Z,23.4700
2022-12-31T00:48:25.043Z,23.4700
2022-12-31T00:48:36.134Z,23.4600
2022-12-31T00:48:47.194Z,23.4600
2022-12-31T00:48:58.284Z,23.4600
2022-12-31T00:49:09.362Z,23.4600
2022-12-31T00:49:20.445Z,23.4600
2022-12-31T00:49:31.535Z,23.4600
2022-12-31T00:49:42.601Z,23.4600
2022-12-31T00:49:53.662Z,23.4600
2022-12-31T00:50:04.718Z,23.4500
2022-12-31T00:50:15.766Z,23.4500
2022-12-31T00:50:26.847Z,23.4500
2022-12-31T00:50:37.908Z,23.4500
2022-12-31T00:50:48.980Z,23.4500
2022-12-31T00:51:00.042Z,23.4500
2022-12-31T00:51:11.101Z,23.4500
2022-12-31T00:51:22.167Z,23.4500
2022-12-31T00:51:33.221Z,23.4500
2022-12-31T00:51:44.305Z,23.4500
2022-12-31T00:51:55.363Z,23.4500
2022-12-31T00:52:06.443Z,23.4500
2022-12-31T00:52:17.502Z,23.4500
2022-12-31T00:52:28.572Z,23.4500
2022-12-31T00:52:39.648Z,23.4500
2022-12-31T00:52:50.749Z,23.4500
2022-12-31T00:53:01.800Z,23.4500
2022-12-31T00:53:12.915Z,23.4500
2022-12-31T00:53:23.997Z,23.4500
2022-12-31T00:53:35.071Z,23.4500
2022-12-31T00:53:46.177Z,23.4500
2022-12-31T00:53:57.252Z,23.4500
2022-12-31T00:54:08.331Z,23.4500
2022-12-31T00:54:19.411Z,23.4500
2022-12-31T00:54:30.472Z,23.4500
2022-12-31T00:54:41.548Z,23.4500
2022-12-31T00:54:52.612Z,23.4500
2022-12-31T00:55:03.697Z,23.4600
2022-12-31T00:55:14.763Z,23.4600
2022-12-31T00:55:25.837Z,23.4600
2022-12-31T00:55:36.898Z,23.4600
2022-12-31T00:55:47.989Z,23.4700
2022-12-31T00:55:59.051Z,23.4700
2022-12-31T00:56:10.124Z,23.4700
2022-12-31T00:56:21.187Z,23.4700
2022-12-31T00:56:32.289Z,23.4700
2022-12-31T00:56:43.332Z,23.4600
2022-12-31T00:56:54.374Z,23.4600
2022-12-31T00:57:05.463Z,23.4600
2022-12-31T00:57:16.551Z,23.4600
2022-12-31T00:57:27.635Z,23.4600
2022-12-31T00:57:38.703Z,23.4600
2022-12-31T00:57:49.771Z,23.4600
2022-12-31T00:58:00.867Z,23.4600
2022-12-31T00:58:11.935Z,23.4700
2022-12-31T00:58:23.046Z,23.4700
2022-12-31T00:58:34.128Z,23.4700
2022-12-31T00:58:45.197Z,23.4700
2022-12-31T00:58:56.272Z,23.4700
2022-12-31T00:59:07.331Z,23.4700
2022-12-31T00:59:18.418Z,23.4600
2022-12-31T00:59:29.491Z,23.4600
2022-12-31T00:59:40.547Z,23.4600
2022-12-31T00:59:51.610Z,23.4600
2022-12-31T01:00:02.694Z,23.4600
2022-12-31T01:00:13.776Z,23.4500
2022-12-31T01:00:24.827Z,23.4500
2022-12-31T01:00:35.911Z,23.4500
2022-12-31T01:00:47.005Z,23.4600
2022-12-31T01:00:58.128Z,23.4600
2022-12-31T01:01:09.465Z,23.4700
2022-12-31T01:01:20.993Z,23.4700
2022-12-31T01:01:32.464Z,23.4700
2022-12-31T01:01:43.894Z,23.4600
2022-12-31T01:01:55.107Z,23.4600
2022-12-31T01:02:06.338Z,23.4600
2022-12-31T01:02:17.776Z,23.4600
2022-12-31T01:02:29.259Z,23.4600
2022-12-31T01:02:40.672Z,23.4500
2022-12-31T01:02:52.057Z,23.4600
2022-12-31T01:03:03.314Z,23.4500
2022-12-31T01:03:14.752Z,23.4600
2022-12-31T01:03:25.912Z,23.4500
2022-12-31T01:03:36.981Z,23.4500
2022-12-31T01:03:48.050Z,23.4600
2022-12-31T01:03:59.107Z,23.4600
2022-12-31T01:04:10.183Z,23.4600
2022-12-31T01:04:21.235Z,23.4600
2022-12-31T01:04:32.305Z,23.4700
2022-12-31T01:04:43.387Z,23.4700
2022-12-31T01:04:54.449Z,23.4700
2022-12-31T01:05:05.525Z,23.4700
2022-12-31T01:05:16.608Z,23.4700
2022-12-31T01:05:27.667Z,23.4700
2022-12-31T01:05:38.748Z,23.4700
2022-12-31T01:05:49.827Z,23.4800
2022-12-31T01:06:00.905Z,23.4800
2022-12-31T01:06:11.984Z,23.4800
2022-12-31T01:06:23.080Z,23.4800
2022-12-31T01:06:34.131Z,23.4800
2022-12-31T01:06:45.190Z,23.4800
2022-12-31T01:06:56.370Z,23.4800
2022-12-31T01:07:07.442Z,23.4800
2022-12-31T01:07:18.508Z,23.4800
2022-12-31T01:07:29.579Z,23.4800
2022-12-31T01:07:40.627Z,23.4800
2022-12-31T01:07:51.692Z,23.4800
2022-12-31T01:08:02.922Z,23.4800
2022-12-31T01:08:14.001Z,23.4800
2022-12-31T01:08:25.087Z,23.4800
2022-12-31T01:08:36.220Z,23.4800
2022-12-31T01:08:47.242Z,23.4800
2022-12-31T01:08:58.307Z,23.4700
2022-12-31T01:09:09.371Z,23.4700
2022-12-31T01:09:20.449Z,23.4700
2022-12-31T01:09:31.517Z,23.4700
2022-12-31T01:09:42.583Z,23.4700
2022-12-31T01:09:53.672Z,23.4700
2022-12-31T01:10:04.740Z,23.4700
2022-12-31T01:10:15.831Z,23.4700
2022-12-31T01:10:26.904Z,23.4700
2022-12-31T01:10:37.968Z,23.4700
2022-12-31T01:10:49.037Z,23.4700
2022-12-31T01:11:00.118Z,23.4700
2022-12-31T01:11:11.188Z,23.4700
2022-12-31T01:11:22.850Z,23.4700
2022-12-31T01:11:34.204Z,23.4700
2022-12-31T01:11:45.287Z,23.4700
2022-12-31T01:11:56.357Z,23.4700
2022-12-31T01:12:07.428Z,23.4700
2022-12-31T01:12:18.487Z,23.4600
2022-12-31T01:12:29.557Z,23.4600
2022-12-31T01:12:40.629Z,23.4600
2022-12-31T01:12:51.700Z,23.4600
2022-12-31T01:13:02.771Z,23.4600
2022-12-31T01:13:13.815Z,23.4600
2022-12-31T01:13:24.874Z,23.4600
2022-12-31T01:13:35.938Z,23.4600
2022-12-31T01:13:47.051Z,23.4600
2022-12-31T01:13:58.146Z,23.4600
2022-12-31T01:14:09.225Z,23.4600
2022-12-31T01:14:20.261Z,23.4600
2022-12-31T01:14:31.319Z,23.4600
2022-12-31T01:14:42.378Z,23.4600
2022-12-31T01:14:53.437Z,23.4600
2022-12-31T01:15:04.508Z,23.4600
2022-12-31T01:15:15.603Z,23.4600
2022-12-31T01:15:26.713Z,23.4600
2022-12-31T01:15:37.821Z,23.4600
2022-12-31T01:15:48.960Z,23.4600
2022-12-31T01:16:00.150Z,23.4600
2022-12-31T01:16:11.348Z,23.4700
2022-12-31T01:16:22.399Z,23.4700
2022-12-31T01:16:33.476Z,23.4700
2022-12-31T01:16:44.556Z,23.4700
2022-12-31T01:16:55.621Z,23.4700
2022-12-31T01:17:06.695Z,23.4800
2022-12-31T01:17:17.755Z,23.4800
2022-12-31T01:17:28.792Z,23.4900
2022-12-31T01:17:39.886Z,23.4900
2022-12-31T01:17:50.959Z,23.4900
2022-12-31T01:18:02.034Z,23.4900
2022-12-31T01:18:13.144Z,23.4900
2022-12-31T01:18:24.202Z,23.4900
2022-12-31T01:18:35.269Z,23.4900
2022-12-31T01:18:46.363Z,23.4900
2022-12-31T01:18:57.467Z,23.4900
2022-12-31T01:19:09.214Z,23.4900
2022-12-31T01:19:20.269Z,23.4900
2022-12-31T01:19:31.344Z,23.4800
2022-12-31T01:19:42.407Z,23.4800
2022-12-31T01:19:53.478Z,23.4800
2022-12-31T01:20:04.552Z,23.4800
2022-12-31T01:20:15.635Z,23.4800
2022-12-31T01:20:26.696Z,23.4800
2022-12-31T01:20:37.766Z,23.4800
2022-12-31T01:20:48.830Z,23.4700
2022-12-31T01:20:59.907Z,23.4700
2022-12-31T01:21:10.975Z,23.4700
2022-12-31T01:21:22.002Z,23.4700
2022-12-31T01:21:33.047Z,23.4700
2022-12-31T01:21:44.122Z,23.4700
2022-12-31T01:21:55.201Z,23.4700
2022-12-31T01:22:06.278Z,23.4600
2022-12-31T01:22:17.357Z,23.4600
2022-12-31T01:22:28.430Z,23.4600
2022-12-31T01:22:39.487Z,23.4600
2022-12-31T01:22:50.553Z,23.4600
2022-12-31T01:23:01.612Z,23.4700
2022-12-31T01:23:12.721Z,23.4700
2022-12-31T01:23:23.759Z,23.4700
2022-12-31T01:23:34.812Z,23.4700
2022-12-31T01:23:45.903Z,23.4700
2022-12-31T01:23:56.967Z,23.4700
2022-12-31T01:24:08.055Z,23.4700
2022-12-31T01:24:19.147Z,23.4700
2022-12-31T01:24:30.212Z,23.4600
2022-12-31T01:24:41.282Z,23.4600
2022-12-31T01:24:52.352Z,23.4600
2022-12-31T01:25:03.424Z,23.4500
2022-12-31T01:25:14.509Z,23.4500
2022-12-31T01:25:25.567Z,23.4500
2022-12-31T01:25:36.639Z,23.4500
2022-12-31T01:25:47.696Z,23.4500
2022-12-31T01:25:58.817Z,23.4500
2022-12-31T01:26:09.877Z,23.4500
2022-12-31T01:26:20.937Z,23.4500
2022-12-31T01:26:32.035Z,23.4400
2022-12-31T01:26:43.089Z,23.4400
2022-12-31T01:26:54.160Z,23.4400
2022-12-31T01:27:05.231Z,23.4400
2022-12-31T01:27:16.304Z,23.4500
2022-12-31T01:27:27.367Z,23.4400
2022-12-31T01:27:38.428Z,23.4400
2022-12-31T01:27:49.501Z,23.4500
2022-12-31T01:28:00.567Z,23.4500
2022-12-31T01:28:11.629Z,23.4500
2022-12-31T01:28:22.687Z,23.4500
2022-12-31T01:28:33.760Z,23.4500
2022-12-31T01:28:44.815Z,23.4600
2022-12-31T01:28:55.875Z,23.4600
2022-12-31T01:29:06.933Z,23.4600
2022-12-31T01:29:18.028Z,23.4600
2022-12-31T01:29:29.097Z,23.4600
2022-12-31T01:29:40.156Z,23.4600
2022-12-31T01:29:51.226Z,23.4600
2022-12-31T01:30:02.271Z,23.4600
2022-12-31T01:30:13.352Z,23.4700
2022-12-31T01:30:24.389Z,23.4700
2022-12-31T01:30:35.489Z,23.4700
2022-12-31T01:30:46.586Z,23.4700
2022-12-31T01:30:57.675Z,23.4700
2022-12-31T01:31:08.850Z,23.4700
2022-12-31T01:31:20.041Z,23.4700
2022-12-31T01:31:31.260Z,23.4700
2022-12-31T01:31:42.308Z,23.4700
2022-12-31T01:31:53.371Z,23.4700
2022-12-31T01:32:04.444Z,23.4800
2022-12-31T01:32:15.519Z,23.4800
2022-12-31T01:32:26.599Z,23.4800
2022-12-31T01:32:37.677Z,23.4800
2022-12-31T01:32:48.727Z,23.4700
2022-12-31T01:32:59.812Z,23.4700
2022-12-31T01:33:10.867Z,23.4700
2022-12-31T01:33:21.960Z,23.4700
2022-12-31T01:33:33.027Z,23.4700
2022-12-31T01:33:44.079Z,23.4600
2022-12-31T01:33:55.184Z,23.4600
2022-12-31T01:34:06.236Z,23.4600
2022-12-31T01:34:17.304Z,23.4600
2022-12-31T01:34:28.411Z,23.4600
2022-12-31T01:34:39.462Z,23.4600
2022-12-31T01:34:50.560Z,23.4600
2022-12-31T01:35:01.617Z,23.4600
2022-12-31T01:35:12.676Z,23.4500
2022-12-31T01:35:23.761Z,23.4500
2022-12-31T01:35:34.826Z,23.4500
2022-12-31T01:35:45.899Z,23.4500
2022-12-31T01:35:56.990Z,23.4500
2022-12-31T01:36:08.085Z,23.4400
2022-12-31T01:36:25.380Z,23.4400
2022-12-31T01:36:36.114Z,23.4400
2022-12-31T01:36:47.181Z,23.4200
2022-12-31T01:36:58.219Z,23.4200
2022-12-31T01:37:09.294Z,23.4300
2022-12-31T01:37:20.366Z,23.4300
2022-12-31T01:37:31.432Z,23.4300
2022-12-31T01:37:42.496Z,23.4400
2022-12-31T01:37:53.581Z,23.4400
2022-12-31T01:38:04.653Z,23.4400
2022-12-31T01:38:15.848Z,23.4400
2022-12-31T01:38:26.917Z,23.4400
2022-12-31T01:38:37.991Z,23.4400
2022-12-31T01:38:49.067Z,23.4400
2022-12-31T01:39:00.132Z,23.4500
2022-12-31T01:39:11.219Z,23.4500
2022-12-31T01:39:22.259Z,23.4500
2022-12-31T01:39:33.349Z,23.4500
2022-12-31T01:39:44.396Z,23.4500
2022-12-31T01:39:55.456Z,23.4600
2022-12-31T01:40:06.524Z,23.4600
2022-12-31T01:40:17.581Z,23.4600
2022-12-31T01:40:28.664Z,23.4600
2022-12-31T01:40:39.720Z,23.4600
2022-12-31T01:40:50.796Z,23.4600
2022-12-31T01:41:01.866Z,23.4600
2022-12-31T01:41:12.939Z,23.4600
2022-12-31T01:41:24.008Z,23.4600
2022-12-31T01:41:35.091Z,23.4600
2022-12-31T01:41:46.144Z,23.4500
2022-12-31T01:41:57.187Z,23.4500
2022-12-31T01:42:08.220Z,23.4500
2022-12-31T01:42:19.281Z,23.4500
2022-12-31T01:42:30.356Z,23.4500
2022-12-31T01:42:41.434Z,23.4500
2022-12-31T01:42:52.500Z,23.4500
2022-12-31T01:43:03.583Z,23.4500
2022-12-31T01:43:14.630Z,23.4500
2022-12-31T01:43:25.686Z,23.4600
2022-12-31T01:43:36.748Z,23.4600
2022-12-31T01:43:47.824Z,23.4600
2022-12-31T01:43:58.888Z,23.4600
2022-12-31T01:44:09.962Z,23.4600
2022-12-31T01:44:21.038Z,23.4600
2022-12-31T01:44:32.117Z,23.4600
2022-12-31T01:44:43.307Z,23.4600
2022-12-31T01:44:54.378Z,23.4600
2022-12-31T01:45:05.426Z,23.4600
2022-12-31T01:45:16.494Z,23.4600
2022-12-31T01:45:27.564Z,23.4600
2022-12-31T01:45:38.629Z,23.4700
2022-12-31T01:45:49.697Z,23.4600
2022-12-31T01:46:00.846Z,23.4600
2022-12-31T01:46:11.979Z,23.4600
2022-12-31T01:46:23.123Z,23.4500
2022-12-31T01:46:34.200Z,23.4500
2022-12-31T01:46:45.298Z,23.4500
2022-12-31T01:46:56.377Z,23.4500
2022-12-31T01:47:07.421Z,23.4500
2022-12-31T01:47:18.512Z,23.4500
2022-12-31T01:47:29.558Z,23.4500
2022-12-31T01:47:40.637Z,23.4500
2022-12-31T01:47:51.703Z,23.4500
2022-12-31T01:48:02.780Z,23.4500
2022-12-31T01:48:13.841Z,23.4500
2022-12-31T01:48:24.909Z,23.4500
2022-12-31T01:48:35.971Z,23.4500
2022-12-31T01:48:47.041Z,23.4500
2022-12-31T01:48:58.115Z,23.4600
2022-12-31T01:49:09.187Z,23.4600
2022-12-31T01:49:20.270Z,23.4700
2022-12-31T01:49:31.339Z,23.4700
2022-12-31T01:49:42.404Z,23.4700
2022-12-31T01:49:53.527Z,23.4700
2022-12-31T01:50:04.590Z,23.4700
2022-12-31T01:50:15.653Z,23.4700
2022-12-31T01:50:26.724Z,23.4700
2022-12-31T01:50:37.777Z,23.4600
2022-12-31T01:50:48.845Z,23.4700
2022-12-31T01:50:59.910Z,23.4600
2022-12-31T01:51:10.997Z,23.4600
2022-12-31T01:51:22.067Z,23.4600
2022-12-31T01:51:33.116Z,23.4600
2022-12-31T01:51:44.191Z,23.4600
2022-12-31T01:51:55.267Z,23.4600
2022-12-31T01:52:06.307Z,23.4600
2022-12-31T01:52:17.351Z,23.4600
2022-12-31T01:52:28.442Z,23.4600
2022-12-31T01:52:39.529Z,23.4600
2022-12-31T01:52:50.608Z,23.4600
2022-12-31T01:53:01.686Z,23.4500
2022-12-31T01:53:12.738Z,23.4500
2022-12-31T01:53:23.830Z,23.4500
2022-12-31T01:53:34.871Z,23.4500
2022-12-31T01:53:45.928Z,23.4500
2022-12-31T01:53:57.012Z,23.4500
2022-12-31T01:54:08.061Z,23.4500
2022-12-31T01:54:19.128Z,23.4500
2022-12-31T01:54:30.192Z,23.4500
2022-12-31T01:54:41.279Z,23.4500
2022-12-31T01:54:52.331Z,23.4500
2022-12-31T01:55:03.444Z,23.4500
2022-12-31T01:55:14.515Z,23.4500
2022-12-31T01:55:25.578Z,23.4600
2022-12-31T01:55:36.652Z,23.4500
2022-12-31T01:55:47.741Z,23.4500
2022-12-31T01:55:58.805Z,23.4500
2022-12-31T01:56:09.868Z,23.4500
2022-12-31T01:56:20.939Z,23.4500
2022-12-31T01:56:32.012Z,23.4400
2022-12-31T01:56:43.076Z,23.4400
2022-12-31T01:56:54.149Z,23.4400
2022-12-31T01:57:05.277Z,23.4400
2022-12-31T01:57:16.317Z,23.4400
2022-12-31T01:57:27.431Z,23.4300
2022-12-31T01:57:38.549Z,23.4300
2022-12-31T01:57:49.598Z,23.4300
2022-12-31T01:58:00.679Z,23.4300
2022-12-31T01:58:11.743Z,23.4300
2022-12-31T01:58:22.799Z,23.4300
2022-12-31T01:58:33.856Z,23.4300
2022-12-31T01:58:44.921Z,23.4300
2022-12-31T01:58:55.978Z,23.4300
2022-12-31T01:59:07.041Z,23.4300
2022-12-31T01:59:18.115Z,23.4300
2022-12-31T01:59:29.185Z,23.4300
2022-12-31T01:59:40.294Z,23.4300
2022-12-31T01:59:51.381Z,23.4300
2022-12-31T02:00:02.477Z,23.4300
2022-12-31T02:00:13.566Z,23.4400
2022-12-31T02:00:24.643Z,23.4400
2022-12-31T02:00:35.703Z,23.4400
2022-12-31T02:00:46.803Z,23.4400
2022-12-31T02:00:57.932Z,23.4400
2022-12-31T02:01:09.016Z,23.4400
2022-12-31T02:01:20.205Z,23.4400
2022-12-31T02:01:31.451Z,23.4400
2022-12-31T02:01:42.718Z,23.4500
2022-12-31T02:01:54.147Z,23.4500
2022-12-31T02:02:05.765Z,23.4400
2022-12-31T02:02:17.162Z,23.4400
2022-12-31T02:02:28.409Z,23.4400
2022-12-31T02:02:39.669Z,23.4400
2022-12-31T02:02:51.197Z,23.4300
2022-12-31T02:03:02.588Z,23.4300
2022-12-31T02:03:13.781Z,23.4300
2022-12-31T02:03:24.908Z,23.4300
2022-12-31T02:03:35.947Z,23.4400
2022-12-31T02:03:47.015Z,23.4300
2022-12-31T02:03:58.079Z,23.4300
2022-12-31T02:04:09.137Z,23.4300
2022-12-31T02:04:20.207Z,23.4300
2022-12-31T02:04:31.272Z,23.4400
2022-12-31T02:04:42.317Z,23.4400
2022-12-31T02:04:53.407Z,23.4400
2022-12-31T02:05:04.476Z,23.4400
2022-12-31T02:05:15.568Z,23.4400
2022-12-31T02:05:26.627Z,23.4400
2022-12-31T02:05:37.677Z,23.4400
2022-12-31T02:05:48.751Z,23.4400
2022-12-31T02:05:59.829Z,23.4400
2022-12-31T02:06:10.913Z,23.4400
2022-12-31T02:06:21.988Z,23.4400
2022-12-31T02:06:33.028Z,23.4500
2022-12-31T02:06:44.107Z,23.4500
2022-12-31T02:06:55.147Z,23.4500
2022-12-31T02:07:06.213Z,23.4400
2022-12-31T02:07:17.268Z,23.4400
2022-12-31T02:07:28.341Z,23.4400
2022-12-31T02:07:39.400Z,23.4400
2022-12-31T02:07:50.476Z,23.4400
2022-12-31T02:08:01.537Z,23.4400
2022-12-31T02:08:12.594Z,23.4400
2022-12-31T02:08:23.665Z,23.4400
2022-12-31T02:08:41.577Z,23.4400
2022-12-31T02:08:51.696Z,23.4400
2022-12-31T02:09:02.773Z,23.4200
2022-12-31T02:09:13.847Z,23.4100
2022-12-31T02:09:24.921Z,23.4200
2022-12-31T02:09:35.976Z,23.4200
2022-12-31T02:09:47.037Z,23.4200
2022-12-31T02:09:58.121Z,23.4200
2022-12-31T02:10:09.213Z,23.4200
2022-12-31T02:10:20.338Z,23.4200
2022-12-31T02:10:31.401Z,23.4300
2022-12-31T02:10:42.505Z,23.4300
2022-12-31T02:10:53.556Z,23.4300
2022-12-31T02:11:04.615Z,23.4300
2022-12-31T02:11:15.666Z,23.4300
2022-12-31T02:11:26.735Z,23.4400
2022-12-31T02:11:37.794Z,23.4400
2022-12-31T02:11:48.856Z,23.4400
2022-12-31T02:11:59.933Z,23.4400
2022-12-31T02:12:10.960Z,23.4400
2022-12-31T02:12:22.056Z,23.4400
2022-12-31T02:12:33.117Z,23.4500
2022-12-31T02:12:44.213Z,23.4400
2022-12-31T02:12:55.281Z,23.4400
2022-12-31T02:13:06.317Z,23.4500
2022-12-31T02:13:17.382Z,23.4600
2022-12-31T02:13:28.445Z,23.4600
2022-12-31T02:13:39.487Z,23.4600
2022-12-31T02:13:53.745Z,23.4600
2022-12-31T02:14:07.517Z,23.4600
2022-12-31T02:14:18.592Z,23.4400
2022-12-31T02:14:29.688Z,23.4400
2022-12-31T02:14:40.756Z,23.4400
2022-12-31T02:14:51.807Z,23.4500